Time;durP1;ratioP1;P1;durP2;ratioP2;P2;SDS_P1;SDS_P2;PMS_P1;PMS_P2;Temp;Humidity;BMP_temperature;BMP_pressure;BME280_temperature;BME280_humidity;BME280_pressure;Samples;Min_cycle;Max_cycle;Signal;HPM_P1;HPM_P2
2023/10/09 00:01:46;;;;;;;8.40;2.95;;;;;;;;;;4352001;32;317076;-86
2023/10/09 00:04:15;;;;;;;4.85;2.60;;;;;;;;;;4343434;32;316987;-86
2023/10/09 00:06:43;;;;;;;6.93;1.98;;;;;;;;;;4352454;32;316949;-87
2023/10/09 00:09:30;;;;;;;8.07;3.47;;;;;;;;;;4340171;32;317085;-86
2023/10/09 00:12:00;;;;;;;6.33;2.40;;;;;;;;;;4342234;32;343146;-87
2023/10/09 00:14:30;;;;;;;8.80;2.90;;;;;;;;;;4353110;32;317063;-87
2023/10/09 00:17:17;;;;;;;9.65;2.42;;;;;;;;;;4345133;32;316860;-87
2023/10/09 00:19:46;;;;;;;7.68;2.30;;;;;;;;;;4354204;32;317063;-87
2023/10/09 00:22:25;;;;;;;11.77;2.55;;;;;;;;;;4344662;32;317042;-87
2023/10/09 00:25:10;;;;;;;9.98;2.33;;;;;;;;;;4344699;32;318299;-79
2023/10/09 00:27:41;;;;;;;8.93;2.67;;;;;;;;;;4351650;32;316634;-82
2023/10/09 00:30:14;;;;;;;3.37;1.67;;;;;;;;;;4345656;32;316711;-82
2023/10/09 00:32:53;;;;;;;4.95;1.90;;;;;;;;;;4352303;32;317074;-87
2023/10/09 00:38:23;;;;;;;7.78;2.28;;;;;;;;;;4266681;33;388448;-85
2023/10/09 00:41:03;;;;;;;9.23;1.83;;;;;;;;;;4337130;32;316937;-86
2023/10/09 00:43:32;;;;;;;5.37;2.60;;;;;;;;;;4340441;32;417494;-85
2023/10/09 00:46:09;;;;;;;5.40;2.30;;;;;;;;;;4343800;32;317044;-85
2023/10/09 00:48:39;;;;;;;5.22;1.77;;;;;;;;;;4353591;32;316823;-86
2023/10/09 00:51:16;;;;;;;7.87;1.95;;;;;;;;;;4340282;32;317050;-83
2023/10/09 00:53:48;;;;;;;10.15;2.08;;;;;;;;;;4353656;32;317109;-86
2023/10/09 00:56:28;;;;;;;9.13;2.60;;;;;;;;;;4339544;32;348784;-85
2023/10/09 00:59:00;;;;;;;6.25;2.50;;;;;;;;;;4340784;32;352316;-86
2023/10/09 01:01:34;;;;;;;4.22;2.08;;;;;;;;;;4351374;32;317129;-86
2023/10/09 01:04:10;;;;;;;6.18;2.28;;;;;;;;;;4343429;32;316782;-87
2023/10/09 01:06:43;;;;;;;8.00;2.45;;;;;;;;;;4349304;32;316634;-85
2023/10/09 01:09:14;;;;;;;8.38;2.47;;;;;;;;;;4337684;32;317300;-86
2023/10/09 01:12:02;;;;;;;9.65;2.65;;;;;;;;;;4352230;32;316864;-84
2023/10/09 01:14:31;;;;;;;4.60;1.87;;;;;;;;;;4339926;32;416625;-86
2023/10/09 01:17:00;;;;;;;8.02;2.60;;;;;;;;;;4342263;32;317028;-86
2023/10/09 01:19:30;;;;;;;11.05;2.58;;;;;;;;;;4348820;32;317004;-86
2023/10/09 01:22:04;;;;;;;10.13;2.43;;;;;;;;;;4340627;32;318077;-86
2023/10/09 01:24:38;;;;;;;8.63;1.77;;;;;;;;;;4353557;32;317858;-86
2023/10/09 01:27:12;;;;;;;9.60;1.98;;;;;;;;;;4341226;32;316917;-83
2023/10/09 01:29:41;;;;;;;7.85;2.70;;;;;;;;;;4354283;32;317097;-85
2023/10/09 01:32:16;;;;;;;7.40;1.98;;;;;;;;;;4342126;32;341730;-84
2023/10/09 01:34:45;;;;;;;4.53;2.00;;;;;;;;;;4353039;32;316913;-85
2023/10/09 01:37:18;;;;;;;9.60;2.58;;;;;;;;;;4340537;32;316780;-85
2023/10/09 01:39:48;;;;;;;7.90;2.35;;;;;;;;;;4354521;32;317040;-83
2023/10/09 01:42:24;;;;;;;5.90;1.80;;;;;;;;;;4342873;32;316612;-86
2023/10/09 01:44:52;;;;;;;7.53;2.78;;;;;;;;;;4353275;32;316915;-82
2023/10/09 01:47:21;;;;;;;3.42;1.67;;;;;;;;;;4334537;32;416407;-86
2023/10/09 01:49:52;;;;;;;2.42;1.60;;;;;;;;;;4353136;32;316961;-86
2023/10/09 01:52:20;;;;;;;7.20;1.80;;;;;;;;;;4340431;32;415982;-86
2023/10/09 01:54:53;;;;;;;4.70;1.83;;;;;;;;;;4354075;32;316777;-86
2023/10/09 01:57:23;;;;;;;6.82;1.95;;;;;;;;;;4337018;32;415805;-87
2023/10/09 01:59:53;;;;;;;7.72;2.12;;;;;;;;;;4352835;32;316845;-87
2023/10/09 02:02:26;;;;;;;3.75;1.90;;;;;;;;;;4337508;32;418903;-86
2023/10/09 02:05:04;;;;;;;5.18;2.50;;;;;;;;;;4342178;32;316918;-81
2023/10/09 02:07:40;;;;;;;8.32;2.90;;;;;;;;;;4342502;32;317041;-80
2023/10/09 02:10:21;;;;;;;9.57;2.28;;;;;;;;;;4350424;32;317213;-80
2023/10/09 02:20:37;;;;;;;7.07;2.67;;;;;;;;;;4153126;27;314374;-80
2023/10/09 02:28:18;;;;;;;6.18;1.92;;;;;;;;;;4348138;33;20647;-86
2023/10/09 02:30:48;;;;;;;5.22;2.42;;;;;;;;;;4352436;32;20328;-86
2023/10/09 02:33:20;;;;;;;5.90;2.15;;;;;;;;;;4364287;32;20501;-85
2023/10/09 02:35:51;;;;;;;5.20;2.33;;;;;;;;;;4364427;32;20252;-85
2023/10/09 02:38:22;;;;;;;3.00;2.15;;;;;;;;;;4364146;32;20233;-81
2023/10/09 02:41:20;;;;;;;5.70;2.42;;;;;;;;;;4364647;32;20697;-86
2023/10/09 02:43:50;;;;;;;7.95;2.53;;;;;;;;;;4364177;32;20568;-86
2023/10/09 02:46:21;;;;;;;6.07;2.60;;;;;;;;;;4364041;32;20567;-86
2023/10/09 02:48:50;;;;;;;4.65;2.12;;;;;;;;;;4363917;32;20572;-86
2023/10/09 02:54:07;;;;;;;5.72;2.85;;;;;;;;;;4362282;32;20241;-84
2023/10/09 02:56:42;;;;;;;7.45;2.90;;;;;;;;;;4363891;32;20544;-85
2023/10/09 02:59:11;;;;;;;6.60;2.40;;;;;;;;;;4363984;32;20525;-80
2023/10/09 03:01:41;;;;;;;6.78;3.15;;;;;;;;;;4363924;32;20578;-85
2023/10/09 03:04:10;;;;;;;5.95;3.60;;;;;;;;;;4363818;32;20559;-81
2023/10/09 03:06:43;;;;;;;8.88;2.45;;;;;;;;;;4363709;32;20615;-82
2023/10/09 03:09:17;;;;;;;5.47;2.37;;;;;;;;;;4364483;32;20563;-88
2023/10/09 03:11:46;;;;;;;6.53;3.17;;;;;;;;;;4363677;32;20635;-85
2023/10/09 03:14:15;;;;;;;5.28;2.28;;;;;;;;;;4363601;32;20623;-86
2023/10/09 03:16:44;;;;;;;3.03;2.40;;;;;;;;;;4363540;32;20647;-87
2023/10/09 03:19:13;;;;;;;9.75;2.67;;;;;;;;;;4363408;32;20643;-83
2023/10/09 03:21:40;;;;;;;7.50;2.53;;;;;;;;;;4363502;32;20610;-86
2023/10/09 03:24:08;;;;;;;3.10;2.30;;;;;;;;;;4363686;32;20622;-83
2023/10/09 03:26:36;;;;;;;5.82;2.72;;;;;;;;;;4363755;32;20661;-85
2023/10/09 03:29:06;;;;;;;13.75;3.05;;;;;;;;;;4363771;32;20626;-81
2023/10/09 03:31:36;;;;;;;4.25;2.50;;;;;;;;;;4363629;32;20661;-86
2023/10/09 03:34:03;;;;;;;10.73;2.35;;;;;;;;;;4364001;32;20285;-88
2023/10/09 03:36:37;;;;;;;4.55;2.22;;;;;;;;;;4363895;32;20375;-86
2023/10/09 03:39:18;;;;;;;3.72;2.50;;;;;;;;;;4363935;32;20555;-85
2023/10/09 03:41:47;;;;;;;4.78;2.47;;;;;;;;;;4363489;32;20646;-86
2023/10/09 03:44:18;;;;;;;1.90;1.70;;;;;;;;;;4363148;32;20711;-85
2023/10/09 03:46:51;;;;;;;4.87;2.30;;;;;;;;;;4363038;32;20618;-80
2023/10/09 03:49:23;;;;;;;10.48;2.90;;;;;;;;;;4363017;32;20743;-86
2023/10/09 03:51:50;;;;;;;4.95;3.05;;;;;;;;;;4363496;32;20741;-85
2023/10/09 03:54:20;;;;;;;7.10;3.30;;;;;;;;;;4363462;32;20612;-86
2023/10/09 03:56:49;;;;;;;7.62;2.65;;;;;;;;;;4362937;32;20532;-85
2023/10/09 03:59:19;;;;;;;5.85;3.20;;;;;;;;;;4362787;32;20548;-86
2023/10/09 04:01:51;;;;;;;9.60;3.25;;;;;;;;;;4362646;32;20670;-86
2023/10/09 04:04:22;;;;;;;4.03;2.65;;;;;;;;;;4362849;32;20607;-86
2023/10/09 04:06:51;;;;;;;3.80;2.90;;;;;;;;;;4362698;32;20631;-87
2023/10/09 04:09:35;;;;;;;7.45;3.78;;;;;;;;;;4362669;32;20580;-88
2023/10/09 04:12:21;;;;;;;8.75;3.58;;;;;;;;;;4362614;32;20615;-86
2023/10/09 04:14:50;;;;;;;7.68;4.75;;;;;;;;;;4363577;32;20203;-85
2023/10/09 04:17:33;;;;;;;5.70;3.87;;;;;;;;;;4362974;32;20571;-82
2023/10/09 04:23:04;;;;;;;5.97;3.45;;;;;;;;;;4344449;32;20308;-84
2023/10/09 04:25:41;;;;;;;6.43;4.50;;;;;;;;;;4363239;32;20584;-86
2023/10/09 04:28:11;;;;;;;7.12;3.85;;;;;;;;;;4362290;32;20642;-82
2023/10/09 04:30:42;;;;;;;12.27;4.40;;;;;;;;;;4362065;32;20591;-82
2023/10/09 04:33:28;;;;;;;9.07;4.12;;;;;;;;;;4362592;32;20581;-85
2023/10/09 04:38:37;;;;;;;6.47;4.12;;;;;;;;;;4361709;32;20257;-86
2023/10/09 04:41:08;;;;;;;12.82;6.95;;;;;;;;;;4361893;32;20690;-82
2023/10/09 04:43:34;;;;;;;11.27;6.55;;;;;;;;;;4361585;32;20628;-83
2023/10/09 04:46:12;;;;;;;11.12;6.78;;;;;;;;;;4361477;32;20268;-87
2023/10/09 04:48:45;;;;;;;9.52;5.55;;;;;;;;;;4361919;32;20227;-82
2023/10/09 04:54:12;;;;;;;13.77;7.32;;;;;;;;;;4361943;32;20731;-87
2023/10/09 04:56:51;;;;;;;25.85;13.68;;;;;;;;;;4361586;32;20537;-83
2023/10/09 04:59:24;;;;;;;17.25;7.62;;;;;;;;;;4361672;32;20198;-84
2023/10/09 05:01:59;;;;;;;8.00;5.28;;;;;;;;;;4361774;32;20580;-86
2023/10/09 05:04:34;;;;;;;16.92;5.47;;;;;;;;;;4362392;32;20663;-86
2023/10/09 05:07:22;;;;;;;8.00;5.35;;;;;;;;;;4362159;32;20571;-85
2023/10/09 05:10:07;;;;;;;16.05;5.05;;;;;;;;;;4362235;32;20239;-87
2023/10/09 05:12:33;;;;;;;8.77;4.12;;;;;;;;;;4362313;32;20724;-86
2023/10/09 05:15:08;;;;;;;11.20;5.10;;;;;;;;;;4362134;32;20640;-85
2023/10/09 05:17:38;;;;;;;11.88;4.20;;;;;;;;;;4362631;32;20563;-87
2023/10/09 05:23:07;;;;;;;7.30;5.40;;;;;;;;;;4361698;32;20543;-86
2023/10/09 05:25:53;;;;;;;11.20;4.60;;;;;;;;;;4362831;32;20588;-86
2023/10/09 05:28:30;;;;;;;5.93;4.78;;;;;;;;;;4362772;33;20559;-86
2023/10/09 05:31:06;;;;;;;12.50;5.12;;;;;;;;;;4362666;33;20559;-83
2023/10/09 05:33:36;;;;;;;5.12;3.95;;;;;;;;;;4361418;33;20864;-86
2023/10/09 05:36:31;;;;;;;10.77;4.72;;;;;;;;;;4361842;33;20617;-84
2023/10/09 05:39:17;;;;;;;8.98;5.00;;;;;;;;;;4362850;33;20509;-84
2023/10/09 05:41:52;;;;;;;6.53;5.00;;;;;;;;;;4362979;33;20544;-89
2023/10/09 06:03:53;;;;;;;10.77;8.48;;;;;;;;;;4319793;33;20215;-92
2023/10/09 06:06:33;;;;;;;7.12;5.20;;;;;;;;;;4319053;33;20294;-89
2023/10/09 06:11:56;;;;;;;7.10;4.65;;;;;;;;;;4363955;32;20240;-90
2023/10/09 06:14:49;;;;;;;6.25;4.85;;;;;;;;;;4364448;32;21195;-85
2023/10/09 06:17:23;;;;;;;6.90;4.20;;;;;;;;;;4363656;32;20363;-85
2023/10/09 06:19:49;;;;;;;5.72;3.60;;;;;;;;;;4363472;32;20614;-87
2023/10/09 06:25:11;;;;;;;6.65;3.50;;;;;;;;;;4364155;32;20232;-88
2023/10/09 06:30:27;;;;;;;4.75;3.35;;;;;;;;;;4363481;32;20263;-86
2023/10/09 06:33:19;;;;;;;4.05;3.10;;;;;;;;;;4364442;32;20599;-86
2023/10/09 06:35:53;;;;;;;5.22;3.35;;;;;;;;;;4376621;32;20292;-87
2023/10/09 06:38:33;;;;;;;8.25;3.03;;;;;;;;;;4492560;27;20300;-86
2023/10/09 06:43:42;;;;;;;4.78;3.10;;;;;;;;;;4850053;27;315322;-84
2023/10/09 06:46:43;;;;;;;3.75;3.20;;;;;;;;;;4340087;32;316554;-87
2023/10/09 06:49:29;;;;;;;9.30;4.03;;;;;;;;;;4309916;32;316877;-86
2023/10/09 06:52:13;;;;;;;5.45;3.05;;;;;;;;;;4309096;32;349156;-90
2023/10/09 06:54:49;;;;;;;5.75;3.40;;;;;;;;;;4325042;32;316619;-89
2023/10/09 06:57:43;;;;;;;4.85;3.00;;;;;;;;;;4311602;32;316946;-90
2023/10/09 07:03:10;;;;;;;5.72;3.20;;;;;;;;;;4298010;32;331025;-89
2023/10/09 07:06:00;;;;;;;6.05;2.97;;;;;;;;;;4330763;32;316682;-87
2023/10/09 07:08:37;;;;;;;3.25;2.50;;;;;;;;;;4315305;32;388251;-87
2023/10/09 07:13:52;;;;;;;3.28;2.47;;;;;;;;;;4328298;32;316594;-89
2023/10/09 07:16:37;;;;;;;4.53;2.85;;;;;;;;;;4317524;32;416167;-88
2023/10/09 07:19:25;;;;;;;4.07;2.35;;;;;;;;;;4312764;32;316707;-88
2023/10/09 07:21:54;;;;;;;4.10;2.62;;;;;;;;;;4320629;32;317291;-90
2023/10/09 07:24:37;;;;;;;2.97;2.28;;;;;;;;;;4333494;32;317036;-88
2023/10/09 07:27:10;;;;;;;3.30;2.10;;;;;;;;;;4310961;32;316651;-87
2023/10/09 07:29:47;;;;;;;4.80;2.28;;;;;;;;;;4327198;32;316889;-90
2023/10/09 07:32:20;;;;;;;4.70;2.28;;;;;;;;;;4335279;32;316316;-91
2023/10/09 07:34:58;;;;;;;3.62;2.35;;;;;;;;;;4347291;32;316739;-88
2023/10/09 07:37:30;;;;;;;4.07;2.42;;;;;;;;;;4278667;32;388030;-90
2023/10/09 07:40:06;;;;;;;5.12;2.17;;;;;;;;;;4334475;32;316751;-89
2023/10/09 07:42:43;;;;;;;3.53;2.33;;;;;;;;;;4346900;32;316770;-89
2023/10/09 07:48:04;;;;;;;2.95;2.17;;;;;;;;;;4321701;32;316678;-90
2023/10/09 07:50:48;;;;;;;4.65;1.90;;;;;;;;;;4336675;32;317193;-91
2023/10/09 07:53:27;;;;;;;5.25;2.53;;;;;;;;;;4315781;32;317034;-87
2023/10/09 07:56:06;;;;;;;5.07;2.10;;;;;;;;;;4328760;32;317020;-91
2023/10/09 07:58:45;;;;;;;4.12;2.10;;;;;;;;;;4338350;32;316522;-88
2023/10/09 08:01:22;;;;;;;3.12;2.03;;;;;;;;;;4325625;32;316723;-94
2023/10/09 08:04:01;;;;;;;4.28;1.90;;;;;;;;;;4331190;32;316354;-90
2023/10/09 08:06:42;;;;;;;3.75;2.30;;;;;;;;;;4324522;32;420117;-90
2023/10/09 08:09:28;;;;;;;3.10;1.85;;;;;;;;;;4328958;32;316556;-90
2023/10/09 08:12:13;;;;;;;13.68;2.10;;;;;;;;;;4328944;32;319172;-90
2023/10/09 08:14:45;;;;;;;4.82;2.30;;;;;;;;;;4339425;32;317806;-90
2023/10/09 08:17:15;;;;;;;7.28;2.12;;;;;;;;;;4323944;32;316948;-91
2023/10/09 08:19:58;;;;;;;3.42;1.83;;;;;;;;;;4336604;32;316861;-91
2023/10/09 08:22:42;;;;;;;3.17;1.87;;;;;;;;;;4326895;32;417021;-90
2023/10/09 08:25:25;;;;;;;4.00;1.70;;;;;;;;;;4322784;32;316854;-91
2023/10/09 08:27:57;;;;;;;5.10;2.12;;;;;;;;;;4328191;32;316592;-91
2023/10/09 08:30:28;;;;;;;4.07;2.20;;;;;;;;;;4333444;32;316881;-89
2023/10/09 08:33:02;;;;;;;3.35;2.03;;;;;;;;;;4328562;32;316987;-93
2023/10/09 08:35:33;;;;;;;2.45;1.60;;;;;;;;;;4336303;32;316732;-91
2023/10/09 08:38:07;;;;;;;3.17;1.90;;;;;;;;;;4328678;32;316628;-92
2023/10/09 08:40:37;;;;;;;4.97;2.30;;;;;;;;;;4338672;32;316708;-90
2023/10/09 08:43:10;;;;;;;2.60;1.60;;;;;;;;;;4326881;32;316852;-91
2023/10/09 08:45:40;;;;;;;2.28;1.80;;;;;;;;;;4336107;32;316906;-90
2023/10/09 08:48:15;;;;;;;3.55;1.90;;;;;;;;;;4309682;32;316636;-89
2023/10/09 08:50:44;;;;;;;10.25;2.33;;;;;;;;;;4340088;32;316638;-89
2023/10/09 08:53:13;;;;;;;6.15;2.08;;;;;;;;;;4323737;32;317862;-88
2023/10/09 08:55:41;;;;;;;3.37;1.98;;;;;;;;;;4338560;32;342206;-87
2023/10/09 08:58:15;;;;;;;3.62;1.90;;;;;;;;;;4319141;32;316657;-90
2023/10/09 09:00:45;;;;;;;3.87;1.87;;;;;;;;;;4338039;32;317084;-91
2023/10/09 09:03:18;;;;;;;3.08;1.87;;;;;;;;;;4328127;32;316779;-86
2023/10/09 09:06:00;;;;;;;28.02;2.40;;;;;;;;;;4339827;32;316954;-89
2023/10/09 09:08:40;;;;;;;6.25;2.15;;;;;;;;;;4313467;32;388355;-89
2023/10/09 09:11:14;;;;;;;3.60;2.33;;;;;;;;;;4321670;32;316912;-87
2023/10/09 09:13:48;;;;;;;7.15;2.87;;;;;;;;;;4337817;32;316652;-90
2023/10/09 09:16:44;;;;;;;4.47;1.87;;;;;;;;;;4327395;32;316639;-89
2023/10/09 09:22:11;;;;;;;3.17;1.73;;;;;;;;;;4312949;32;316512;-91
2023/10/09 09:24:47;;;;;;;2.58;1.98;;;;;;;;;;4325397;33;344241;-90
2023/10/09 09:27:20;;;;;;;5.53;2.08;;;;;;;;;;4316241;33;316557;-89
2023/10/09 09:29:54;;;;;;;3.65;1.87;;;;;;;;;;4327920;33;316236;-92
2023/10/09 09:33:15;;;;;;;4.12;1.90;;;;;;;;;;4315256;33;420031;-91
2023/10/09 09:35:58;;;;;;;2.53;1.58;;;;;;;;;;4308963;33;389196;-89
2023/10/09 09:38:42;;;;;;;3.62;1.90;;;;;;;;;;4328146;33;417014;-89
2023/10/09 09:41:10;;;;;;;2.60;2.03;;;;;;;;;;4327313;32;316565;-86
2023/10/09 09:43:41;;;;;;;4.75;1.85;;;;;;;;;;4343305;33;316509;-88
2023/10/09 09:46:11;;;;;;;3.62;1.83;;;;;;;;;;4331249;32;316911;-92
2023/10/09 09:48:47;;;;;;;4.45;1.83;;;;;;;;;;4343847;32;316448;-88
2023/10/09 09:51:17;;;;;;;2.92;1.98;;;;;;;;;;4329282;32;316838;-88
2023/10/09 09:53:49;;;;;;;4.10;2.33;;;;;;;;;;4336081;32;316547;-89
2023/10/09 09:56:24;;;;;;;3.40;2.25;;;;;;;;;;4327904;32;316457;-87
2023/10/09 09:58:56;;;;;;;2.72;1.50;;;;;;;;;;4334886;33;316780;-85
2023/10/09 10:01:27;;;;;;;4.15;2.42;;;;;;;;;;4326837;32;386595;-87
2023/10/09 10:04:01;;;;;;;3.78;1.90;;;;;;;;;;4332350;32;316982;-88
2023/10/09 10:06:32;;;;;;;7.15;2.20;;;;;;;;;;4343158;33;316751;-88
2023/10/09 10:09:07;;;;;;;2.80;1.80;;;;;;;;;;4327640;33;355926;-88
2023/10/09 10:11:45;;;;;;;2.28;1.90;;;;;;;;;;4339394;32;316786;-89
2023/10/09 10:14:21;;;;;;;3.85;1.95;;;;;;;;;;4328125;32;317114;-91
2023/10/09 10:17:06;;;;;;;7.28;2.35;;;;;;;;;;4336760;32;316908;-88
2023/10/09 10:23:25;;;;;;;3.45;2.15;;;;;;;;;;4277116;33;388488;-89
2023/10/09 10:26:02;;;;;;;3.45;2.10;;;;;;;;;;4325075;32;316599;-89
2023/10/09 10:28:38;;;;;;;2.50;1.65;;;;;;;;;;4336763;33;316667;-89
2023/10/09 10:31:07;;;;;;;3.75;1.42;;;;;;;;;;4326592;32;316683;-89
2023/10/09 10:34:07;;;;;;;3.67;1.90;;;;;;;;;;4336159;32;316801;-91
2023/10/09 10:36:35;;;;;;;2.60;1.80;;;;;;;;;;4326064;32;387132;-91
2023/10/09 10:39:10;;;;;;;4.20;2.33;;;;;;;;;;4325800;32;316887;-90
2023/10/09 10:41:50;;;;;;;3.40;1.95;;;;;;;;;;4336836;32;316874;-88
2023/10/09 10:44:36;;;;;;;2.85;1.87;;;;;;;;;;4324932;32;417035;-86
2023/10/09 10:47:04;;;;;;;2.95;2.17;;;;;;;;;;4327659;32;355480;-86
2023/10/09 10:49:38;;;;;;;4.43;2.20;;;;;;;;;;4337671;32;316840;-86
2023/10/09 10:52:18;;;;;;;3.33;2.00;;;;;;;;;;4327661;32;354099;-87
2023/10/09 10:54:47;;;;;;;2.42;1.55;;;;;;;;;;4338985;32;316699;-86
2023/10/09 10:57:20;;;;;;;3.20;1.77;;;;;;;;;;4311230;32;317145;-85
2023/10/09 10:59:49;;;;;;;2.87;1.90;;;;;;;;;;4340572;32;316652;-86
2023/10/09 11:02:27;;;;;;;4.20;1.92;;;;;;;;;;4339578;32;348613;-83
2023/10/09 11:05:14;;;;;;;3.58;1.90;;;;;;;;;;4339456;32;316872;-83
2023/10/09 11:07:42;;;;;;;3.17;1.70;;;;;;;;;;4353032;32;316511;-86
2023/10/09 11:10:10;;;;;;;4.62;2.20;;;;;;;;;;4336060;32;317155;-86
2023/10/09 11:13:30;;;;;;;5.32;1.90;;;;;;;;;;4345016;32;316778;-86
2023/10/09 11:15:46;;;;;;;5.20;1.60;;;;;;;;;;4324704;32;388673;-86
2023/10/09 11:18:22;;;;;;;3.80;1.50;;;;;;;;;;4323181;32;316945;-86
2023/10/09 11:23:53;;;;;;;4.87;2.17;;;;;;;;;;4339439;32;316772;-88
2023/10/09 11:26:25;;;;;;;4.10;2.37;;;;;;;;;;4320401;32;420278;-90
2023/10/09 11:32:01;;;;;;;3.50;2.25;;;;;;;;;;4439271;31;20269;-84
2023/10/09 11:34:34;;;;;;;4.03;1.60;;;;;;;;;;4411450;32;322937;-85
2023/10/09 11:37:02;;;;;;;3.42;1.60;;;;;;;;;;4401197;32;316776;-85
2023/10/09 11:39:50;;;;;;;6.65;2.08;;;;;;;;;;4411603;32;316975;-85
2023/10/09 11:42:35;;;;;;;4.28;1.70;;;;;;;;;;4403686;32;416226;-84
2023/10/09 11:45:19;;;;;;;4.03;2.50;;;;;;;;;;4415556;32;316696;-85
2023/10/09 11:47:59;;;;;;;2.72;1.83;;;;;;;;;;4417121;32;317354;-85
2023/10/09 11:50:50;;;;;;;3.33;2.00;;;;;;;;;;4424977;32;316643;-86
2023/10/09 11:53:33;;;;;;;3.97;1.80;;;;;;;;;;4412444;32;417171;-86
2023/10/09 11:56:02;;;;;;;3.65;2.00;;;;;;;;;;4413805;32;316731;-85
2023/10/09 11:58:29;;;;;;;3.22;1.50;;;;;;;;;;4425054;32;316767;-85
2023/10/09 12:00:59;;;;;;;2.55;1.60;;;;;;;;;;4415447;32;317481;-86
2023/10/09 12:03:29;;;;;;;7.85;1.90;;;;;;;;;;4425566;32;316697;-86
2023/10/09 12:06:04;;;;;;;5.03;1.90;;;;;;;;;;4413037;32;316555;-87
2023/10/09 12:08:32;;;;;;;3.35;1.77;;;;;;;;;;4424525;32;316841;-86
2023/10/09 12:11:08;;;;;;;10.67;2.03;;;;;;;;;;4415636;32;316717;-85
2023/10/09 12:13:37;;;;;;;7.00;1.83;;;;;;;;;;4425246;32;317825;-86
2023/10/09 12:16:09;;;;;;;16.52;10.18;;;;;;;;;;4413020;32;316941;-86
2023/10/09 12:18:39;;;;;;;4.60;3.28;;;;;;;;;;4426417;32;318816;-88
2023/10/09 12:21:06;;;;;;;38.95;21.05;;;;;;;;;;4416023;32;316897;-84
2023/10/09 12:23:35;;;;;;;5.45;2.53;;;;;;;;;;4425284;32;319006;-90
2023/10/09 12:26:03;;;;;;;20.70;8.30;;;;;;;;;;4411998;32;316742;-87
2023/10/09 12:28:32;;;;;;;9.05;3.62;;;;;;;;;;4424358;32;317696;-88
2023/10/09 12:31:02;;;;;;;3.97;2.67;;;;;;;;;;4397116;32;316647;-87
2023/10/09 12:33:30;;;;;;;5.03;2.78;;;;;;;;;;4394060;32;316826;-87
2023/10/09 12:36:01;;;;;;;15.75;6.55;;;;;;;;;;4382434;32;316764;-87
2023/10/09 12:38:31;;;;;;;6.93;3.72;;;;;;;;;;4395722;32;317800;-90
2023/10/09 12:41:08;;;;;;;5.37;2.70;;;;;;;;;;4381998;32;345042;-88
2023/10/09 12:43:37;;;;;;;9.82;3.00;;;;;;;;;;4385341;32;316737;-90
2023/10/09 12:46:07;;;;;;;5.60;2.45;;;;;;;;;;4370701;32;316783;-89
2023/10/09 12:48:36;;;;;;;6.60;2.35;;;;;;;;;;4383480;32;316883;-89
2023/10/09 12:51:07;;;;;;;3.78;2.30;;;;;;;;;;4375243;32;358148;-89
2023/10/09 12:53:34;;;;;;;4.93;2.37;;;;;;;;;;4384970;32;316846;-88
2023/10/09 12:56:02;;;;;;;4.60;2.47;;;;;;;;;;4370479;32;316725;-89
2023/10/09 12:58:29;;;;;;;5.05;1.92;;;;;;;;;;4385635;32;316539;-87
2023/10/09 13:01:09;;;;;;;5.10;2.47;;;;;;;;;;4373092;32;316650;-90
2023/10/09 13:03:38;;;;;;;6.28;1.75;;;;;;;;;;4385470;32;316957;-89
2023/10/09 13:06:10;;;;;;;4.18;2.15;;;;;;;;;;4371746;32;316927;-90
2023/10/09 13:08:40;;;;;;;6.53;1.95;;;;;;;;;;4384658;32;316595;-90
2023/10/09 13:11:11;;;;;;;4.95;2.22;;;;;;;;;;4373168;32;347776;-90
2023/10/09 13:13:43;;;;;;;4.43;3.15;;;;;;;;;;4384369;32;317178;-89
2023/10/09 13:16:13;;;;;;;7.97;2.53;;;;;;;;;;4369126;32;415819;-89
2023/10/09 13:18:49;;;;;;;5.30;2.47;;;;;;;;;;4385747;32;316813;-89
2023/10/09 13:21:19;;;;;;;6.30;2.25;;;;;;;;;;4371937;32;387409;-89
2023/10/09 13:23:49;;;;;;;5.55;3.03;;;;;;;;;;4374949;32;317042;-88
2023/10/09 13:26:23;;;;;;;3.05;1.90;;;;;;;;;;4380467;32;317233;-90
2023/10/09 13:28:52;;;;;;;4.95;2.30;;;;;;;;;;4373078;32;316667;-89
2023/10/09 13:31:21;;;;;;;4.72;2.33;;;;;;;;;;4382954;32;329536;-88
2023/10/09 13:33:49;;;;;;;5.75;2.20;;;;;;;;;;4369949;32;317037;-89
2023/10/09 13:36:19;;;;;;;3.53;1.98;;;;;;;;;;4380750;32;317008;-89
2023/10/09 13:38:47;;;;;;;2.75;2.17;;;;;;;;;;4373124;32;316562;-90
2023/10/09 13:41:17;;;;;;;5.05;2.00;;;;;;;;;;4382453;32;316682;-88
2023/10/09 13:43:45;;;;;;;4.85;2.60;;;;;;;;;;4368986;32;320213;-90
2023/10/09 13:46:17;;;;;;;3.55;2.30;;;;;;;;;;4380920;32;316800;-91
2023/10/09 13:48:45;;;;;;;4.82;2.15;;;;;;;;;;4372887;32;316755;-90
2023/10/09 13:51:17;;;;;;;4.57;2.58;;;;;;;;;;4384712;32;316731;-90
2023/10/09 13:53:47;;;;;;;8.73;2.62;;;;;;;;;;4368610;32;316688;-80
2023/10/09 13:56:18;;;;;;;4.10;2.87;;;;;;;;;;4380381;32;316758;-80
2023/10/09 13:58:47;;;;;;;5.12;2.75;;;;;;;;;;4374018;32;316738;-85
2023/10/09 14:01:26;;;;;;;5.37;3.00;;;;;;;;;;4385053;32;316999;-79
2023/10/09 14:03:57;;;;;;;9.33;2.33;;;;;;;;;;4372301;32;333103;-82
2023/10/09 14:06:31;;;;;;;5.07;3.15;;;;;;;;;;4381357;32;316815;-87
2023/10/09 14:09:04;;;;;;;4.35;2.70;;;;;;;;;;4375001;32;317003;-88
2023/10/09 14:11:31;;;;;;;3.90;2.05;;;;;;;;;;4384006;32;316920;-82
2023/10/09 14:14:01;;;;;;;6.87;2.50;;;;;;;;;;4369108;32;347833;-85
2023/10/09 14:16:28;;;;;;;6.00;2.87;;;;;;;;;;4382436;32;317146;-86
2023/10/09 14:18:59;;;;;;;9.02;2.83;;;;;;;;;;4373494;32;317208;-81
2023/10/09 14:21:29;;;;;;;3.60;2.60;;;;;;;;;;4384362;32;317090;-82
2023/10/09 14:24:00;;;;;;;8.13;2.87;;;;;;;;;;4370034;32;316827;-86
2023/10/09 14:26:32;;;;;;;4.97;3.00;;;;;;;;;;4382281;32;350409;-82
2023/10/09 14:29:01;;;;;;;7.22;2.60;;;;;;;;;;4372035;32;316910;-85
2023/10/09 14:31:28;;;;;;;11.12;3.33;;;;;;;;;;4384129;32;317004;-85
2023/10/09 14:33:57;;;;;;;6.75;2.70;;;;;;;;;;4371230;32;317894;-85
2023/10/09 14:36:33;;;;;;;3.67;2.42;;;;;;;;;;4381955;32;316706;-89
2023/10/09 14:39:01;;;;;;;7.32;3.28;;;;;;;;;;4371814;32;316986;-85
2023/10/09 14:41:33;;;;;;;4.60;2.33;;;;;;;;;;4384714;32;316955;-81
2023/10/09 14:44:00;;;;;;;5.00;2.92;;;;;;;;;;4371014;32;316873;-82
2023/10/09 14:46:28;;;;;;;5.68;2.50;;;;;;;;;;4379964;32;349407;-85
2023/10/09 14:48:56;;;;;;;7.55;3.17;;;;;;;;;;4372115;32;329561;-84
2023/10/09 14:51:27;;;;;;;6.65;3.10;;;;;;;;;;4383178;32;316869;-82
2023/10/09 14:53:58;;;;;;;5.40;2.67;;;;;;;;;;4371872;32;316815;-83
2023/10/09 14:56:29;;;;;;;6.07;2.75;;;;;;;;;;4381562;32;357272;-88
2023/10/09 14:59:00;;;;;;;13.05;3.58;;;;;;;;;;4371676;32;317039;-88
2023/10/09 15:01:29;;;;;;;7.87;2.65;;;;;;;;;;4381692;32;317816;-78
2023/10/09 15:03:59;;;;;;;4.45;2.40;;;;;;;;;;4373567;32;316921;-79
2023/10/09 15:06:29;;;;;;;7.97;2.40;;;;;;;;;;4381163;32;316708;-89
2023/10/09 15:08:57;;;;;;;4.30;2.53;;;;;;;;;;4373076;32;316988;-84
2023/10/09 15:11:28;;;;;;;4.18;2.47;;;;;;;;;;4378782;32;316886;-82
2023/10/09 15:13:57;;;;;;;11.05;2.40;;;;;;;;;;4366248;32;316884;-86
2023/10/09 15:16:29;;;;;;;5.53;2.65;;;;;;;;;;4390138;32;317673;-91
2023/10/09 15:18:57;;;;;;;3.72;2.10;;;;;;;;;;4374161;32;316673;-89
2023/10/09 15:21:26;;;;;;;3.80;2.40;;;;;;;;;;4383589;32;316319;-91
2023/10/09 15:23:55;;;;;;;5.00;2.50;;;;;;;;;;4372035;32;320199;-91
2023/10/09 15:26:24;;;;;;;4.87;2.35;;;;;;;;;;4382655;32;316607;-87
2023/10/09 15:28:51;;;;;;;4.10;2.45;;;;;;;;;;4372330;32;316811;-84
2023/10/09 15:31:21;;;;;;;8.02;4.20;;;;;;;;;;4386299;32;316833;-83
2023/10/09 15:33:51;;;;;;;5.82;3.10;;;;;;;;;;4379512;32;316569;-83
2023/10/09 15:36:20;;;;;;;6.18;3.53;;;;;;;;;;4386955;32;317030;-82
2023/10/09 15:38:49;;;;;;;18.27;4.78;;;;;;;;;;4386885;32;316380;-90
2023/10/09 15:41:21;;;;;;;8.85;3.50;;;;;;;;;;4396742;32;316387;-91
2023/10/09 15:43:49;;;;;;;8.95;4.07;;;;;;;;;;4372565;32;316692;-84
2023/10/09 15:46:16;;;;;;;15.43;7.15;;;;;;;;;;4379243;32;316789;-86
2023/10/09 15:48:45;;;;;;;12.93;6.50;;;;;;;;;;4382173;32;317961;-82
2023/10/09 15:51:15;;;;;;;14.20;8.07;;;;;;;;;;4369015;32;417161;-89
2023/10/09 15:53:44;;;;;;;18.52;8.15;;;;;;;;;;4383111;32;318179;-85
2023/10/09 15:56:13;;;;;;;12.07;6.32;;;;;;;;;;4364122;32;417505;-82
2023/10/09 15:58:43;;;;;;;11.57;6.32;;;;;;;;;;4383534;32;317877;-85
2023/10/09 16:01:14;;;;;;;9.80;4.10;;;;;;;;;;4371883;32;387023;-91
2023/10/09 16:03:42;;;;;;;11.05;4.60;;;;;;;;;;4382957;32;316616;-86
2023/10/09 16:06:11;;;;;;;13.95;4.70;;;;;;;;;;4365215;32;417083;-87
2023/10/09 16:08:44;;;;;;;7.40;5.32;;;;;;;;;;4382382;32;317692;-84
2023/10/09 16:11:15;;;;;;;14.93;4.82;;;;;;;;;;4367996;32;416131;-86
2023/10/09 16:13:42;;;;;;;10.27;3.90;;;;;;;;;;4382423;32;317861;-85
2023/10/09 16:16:10;;;;;;;6.75;3.62;;;;;;;;;;4367207;32;387289;-88
2023/10/09 16:18:39;;;;;;;10.95;4.62;;;;;;;;;;4386788;32;316607;-90
2023/10/09 16:21:08;;;;;;;10.95;5.40;;;;;;;;;;4376172;32;317772;-84
2023/10/09 16:23:36;;;;;;;17.48;5.37;;;;;;;;;;4385509;32;318038;-85
2023/10/09 16:26:07;;;;;;;16.23;7.82;;;;;;;;;;4373723;32;317909;-86
2023/10/09 16:28:36;;;;;;;18.62;6.80;;;;;;;;;;4385300;32;318054;-91
2023/10/09 16:31:05;;;;;;;9.57;5.47;;;;;;;;;;4373538;32;318117;-89